createdAt,value
2022-12-03T00:01:23.811Z,86.24
2022-12-03T00:03:50.965Z,86.79
2022-12-03T00:06:18.307Z,86.99
2022-12-03T00:08:45.207Z,86.06
2022-12-03T00:11:12.151Z,86.70
2022-12-03T00:13:38.882Z,87.04
2022-12-03T00:16:05.902Z,86.94
2022-12-03T00:18:33.555Z,87.03
2022-12-03T00:21:00.425Z,87.18
2022-12-03T00:23:27.568Z,87.21
2022-12-03T00:25:54.166Z,86.95
2022-12-03T00:28:21.059Z,86.21
2022-12-03T00:30:47.903Z,86.80
2022-12-03T00:33:14.659Z,87.01
2022-12-03T00:35:41.936Z,86.91
2022-12-03T00:38:08.618Z,87.18
2022-12-03T00:40:35.391Z,87.39
2022-12-03T00:43:02.182Z,87.78
2022-12-03T00:45:28.830Z,87.24
2022-12-03T00:47:55.638Z,87.21
2022-12-03T00:50:22.843Z,87.87
2022-12-03T00:52:50.209Z,87.36
2022-12-03T00:55:17.276Z,86.97
2022-12-03T00:57:44.119Z,87.81
2022-12-03T01:00:12.233Z,87.99
2022-12-03T01:02:38.797Z,86.83
2022-12-03T01:05:06.320Z,86.35
2022-12-03T01:07:33.194Z,86.05
2022-12-03T01:09:59.975Z,86.12
2022-12-03T01:12:26.688Z,87.27
2022-12-03T01:14:53.606Z,87.54
2022-12-03T01:17:21.139Z,86.62
2022-12-03T01:19:48.683Z,86.29
2022-12-03T01:22:15.354Z,87.01
2022-12-03T01:24:42.154Z,87.57
2022-12-03T01:27:09.102Z,87.20
2022-12-03T01:29:35.786Z,87.49
2022-12-03T01:32:17.544Z,87.52
2022-12-03T01:34:48.545Z,87.93
2022-12-03T01:37:16.057Z,87.01
2022-12-03T01:39:43.045Z,87.44
2022-12-03T01:42:16.168Z,86.46
2022-12-03T01:44:43.637Z,86.51
2022-12-03T01:47:16.407Z,86.68
2022-12-03T01:49:44.683Z,87.05
2022-12-03T01:52:18.129Z,87.55
2022-12-03T01:54:58.137Z,88.18
2022-12-03T01:57:26.213Z,87.58
2022-12-03T01:59:55.598Z,88.13
2022-12-03T02:02:25.820Z,87.69
2022-12-03T02:04:54.268Z,87.72
2022-12-03T02:07:28.507Z,87.41
2022-12-03T02:09:57.752Z,88.01
2022-12-03T02:12:49.067Z,88.02
2022-12-03T02:15:15.964Z,87.70
2022-12-03T02:17:43.378Z,88.38
2022-12-03T02:20:12.478Z,87.93
2022-12-03T02:23:10.363Z,87.45
2022-12-03T02:25:38.204Z,87.25
2022-12-03T02:28:08.007Z,86.55
2022-12-03T02:30:35.558Z,87.92
2022-12-03T02:33:03.216Z,87.90
2022-12-03T02:35:34.893Z,88.06
2022-12-03T02:38:24.052Z,87.32
2022-12-03T02:40:56.829Z,87.52
2022-12-03T02:43:24.106Z,87.22
2022-12-03T02:45:53.768Z,89.01
2022-12-03T02:48:30.891Z,87.37
2022-12-03T02:51:01.027Z,87.25
2022-12-03T02:53:35.862Z,87.84
2022-12-03T02:56:04.013Z,88.65
2022-12-03T02:58:32.848Z,88.33
2022-12-03T03:01:01.645Z,88.41
2022-12-03T03:03:30.035Z,88.15
2022-12-03T03:05:59.087Z,88.41
2022-12-03T03:08:27.009Z,88.81
2022-12-03T03:10:55.006Z,88.88
2022-12-03T03:13:22.323Z,88.77
2022-12-03T03:15:49.227Z,88.07
2022-12-03T03:18:16.932Z,88.71
2022-12-03T03:20:44.226Z,88.39
2022-12-03T03:23:10.714Z,88.19
2022-12-03T03:25:39.325Z,88.05
2022-12-03T03:28:07.592Z,88.53
2022-12-03T03:30:35.959Z,88.52
2022-12-03T03:33:03.437Z,88.86
2022-12-03T03:35:30.491Z,88.96
2022-12-03T03:37:58.749Z,89.11
2022-12-03T03:40:26.714Z,88.66
2022-12-03T03:42:56.104Z,88.71
2022-12-03T03:45:28.784Z,88.41
2022-12-03T03:47:58.200Z,89.29
2022-12-03T03:50:25.964Z,88.66
2022-12-03T03:52:53.257Z,89.13
2022-12-03T03:55:20.609Z,89.08
2022-12-03T03:57:48.295Z,88.81
2022-12-03T04:00:17.081Z,88.84
2022-12-03T04:02:44.042Z,88.81
2022-12-03T04:05:19.610Z,88.35
2022-12-03T04:07:46.728Z,89.17
2022-12-03T04:10:33.165Z,89.27
2022-12-03T04:13:00.895Z,89.12
2022-12-03T04:15:28.637Z,89.20
2022-12-03T04:18:25.441Z,88.75
2022-12-03T04:21:12.136Z,89.28
2022-12-03T04:23:41.218Z,88.20
2022-12-03T04:26:26.457Z,88.65
2022-12-03T04:28:53.274Z,88.77
2022-12-03T04:31:38.713Z,88.97
2022-12-03T04:34:24.299Z,88.95
2022-12-03T04:36:51.440Z,88.54
2022-12-03T04:39:18.168Z,88.75
2022-12-03T04:41:45.245Z,89.29
2022-12-03T04:44:30.453Z,89.82
2022-12-03T04:46:57.275Z,90.20
2022-12-03T04:49:24.457Z,89.81
2022-12-03T04:51:51.883Z,89.52
2022-12-03T04:54:18.959Z,88.09
2022-12-03T04:56:45.897Z,88.13
2022-12-03T04:59:16.327Z,88.52
2022-12-03T05:01:43.935Z,88.87
2022-12-03T05:04:11.660Z,89.61
2022-12-03T05:06:39.202Z,90.13
2022-12-03T05:09:06.742Z,89.02
2022-12-03T05:11:34.402Z,89.85
2022-12-03T05:14:01.616Z,89.63
2022-12-03T05:16:29.302Z,89.54
2022-12-03T05:18:56.466Z,90.25
2022-12-03T05:21:23.679Z,89.66
2022-12-03T05:23:51.845Z,89.85
2022-12-03T05:26:20.153Z,89.35
2022-12-03T05:28:49.466Z,89.18
2022-12-03T05:31:16.759Z,90.07
2022-12-03T05:33:44.582Z,90.24
2022-12-03T05:36:11.938Z,90.84
2022-12-03T05:38:39.053Z,89.38
2022-12-03T05:41:26.305Z,89.59
2022-12-03T05:43:53.135Z,89.79
2022-12-03T05:46:20.101Z,88.90
2022-12-03T05:48:47.054Z,89.51
2022-12-03T05:51:13.739Z,89.72
2022-12-03T05:53:40.646Z,89.61
2022-12-03T05:56:07.793Z,90.04
2022-12-03T05:58:34.509Z,90.63
2022-12-03T06:01:01.343Z,90.66
2022-12-03T06:03:28.325Z,90.71
2022-12-03T06:05:55.422Z,89.91
2022-12-03T06:08:22.094Z,89.77
2022-12-03T06:10:49.148Z,89.98
2022-12-03T06:13:16.362Z,89.91
2022-12-03T06:15:44.162Z,90.50
2022-12-03T06:18:11.487Z,91.15
2022-12-03T06:20:38.531Z,90.62
2022-12-03T06:23:07.836Z,90.50
2022-12-03T06:25:34.838Z,91.01
2022-12-03T06:28:02.154Z,91.03
2022-12-03T06:30:30.274Z,90.27
2022-12-03T06:32:57.840Z,89.97
2022-12-03T06:35:25.606Z,90.48
2022-12-03T06:37:52.648Z,90.52
2022-12-03T06:40:20.890Z,90.45
2022-12-03T06:42:47.776Z,90.10
2022-12-03T06:45:14.700Z,90.31
2022-12-03T06:47:43.161Z,90.59
2022-12-03T06:50:10.925Z,89.74
2022-12-03T06:52:38.219Z,90.42
2022-12-03T06:55:06.930Z,90.31
2022-12-03T06:57:34.309Z,90.25
2022-12-03T07:00:02.321Z,91.02
2022-12-03T07:02:29.577Z,90.47
2022-12-03T07:04:56.848Z,90.80
2022-12-03T07:07:26.319Z,90.33
2022-12-03T07:09:53.489Z,90.74
2022-12-03T07:12:20.333Z,91.19
2022-12-03T07:14:49.517Z,90.98
2022-12-03T07:17:16.936Z,91.00
2022-12-03T07:19:43.809Z,91.42
2022-12-03T07:22:10.620Z,91.77
2022-12-03T07:24:37.472Z,91.43
2022-12-03T07:27:04.201Z,92.05
2022-12-03T07:29:31.031Z,92.26
2022-12-03T07:31:58.521Z,91.85
2022-12-03T07:34:25.444Z,91.72
2022-12-03T07:36:52.420Z,92.08
2022-12-03T07:39:19.184Z,91.76
2022-12-03T07:41:46.195Z,91.74
2022-12-03T07:44:14.668Z,92.31
2022-12-03T07:46:42.909Z,92.53
2022-12-03T07:49:09.793Z,92.33
2022-12-03T07:51:36.550Z,91.98
2022-12-03T07:54:03.496Z,91.81
2022-12-03T07:56:30.274Z,92.02
2022-12-03T07:58:57.238Z,91.07
2022-12-03T08:01:24.209Z,90.99
2022-12-03T08:03:51.171Z,91.28
2022-12-03T08:06:17.880Z,89.90
2022-12-03T08:08:44.569Z,90.58
2022-12-03T08:11:15.039Z,91.27
2022-12-03T08:13:42.624Z,90.36
2022-12-03T08:16:16.921Z,90.74
2022-12-03T08:18:45.044Z,90.16
2022-12-03T08:21:14.455Z,90.89
2022-12-03T08:23:41.515Z,91.14
2022-12-03T08:26:24.249Z,90.39
2022-12-03T08:28:52.707Z,90.65
2022-12-03T08:31:26.835Z,90.29
2022-12-03T08:34:18.796Z,89.78
2022-12-03T08:36:47.649Z,89.53
2022-12-03T08:39:35.135Z,90.13
2022-12-03T08:42:23.628Z,88.98
2022-12-03T08:44:53.530Z,88.94
2022-12-03T08:47:22.020Z,88.82
2022-12-03T08:50:03.371Z,89.09
2022-12-03T08:52:34.723Z,89.03
2022-12-03T08:55:33.562Z,88.71
2022-12-03T08:58:16.654Z,89.20
2022-12-03T09:00:46.447Z,90.18
2022-12-03T09:03:18.615Z,89.69
2022-12-03T09:05:46.214Z,89.87
2022-12-03T09:08:13.257Z,89.82
2022-12-03T09:10:40.669Z,89.89
2022-12-03T09:13:10.746Z,90.13
2022-12-03T09:15:40.113Z,89.89
2022-12-03T09:18:10.830Z,90.08
2022-12-03T09:20:40.063Z,90.73
2022-12-03T09:23:07.342Z,89.29
2022-12-03T09:25:34.545Z,89.92
2022-12-03T09:28:01.436Z,90.26
2022-12-03T09:30:28.603Z,90.18
2022-12-03T09:32:55.365Z,90.48
2022-12-03T09:35:22.774Z,89.85
2022-12-03T09:37:49.538Z,89.79
2022-12-03T09:40:20.262Z,89.43
2022-12-03T09:42:47.580Z,88.77
2022-12-03T09:45:15.231Z,88.81
2022-12-03T09:47:46.064Z,88.93
2022-12-03T09:50:21.772Z,88.67
2022-12-03T09:52:50.987Z,89.13
2022-12-03T09:55:22.845Z,89.45
2022-12-03T09:57:51.883Z,88.56
2022-12-03T10:00:27.231Z,89.49
2022-12-03T10:03:01.610Z,88.64
2022-12-03T10:05:29.546Z,89.58
2022-12-03T10:08:04.593Z,89.44
2022-12-03T10:10:34.075Z,89.09
2022-12-03T10:13:01.659Z,89.63
2022-12-03T10:15:28.439Z,89.92
2022-12-03T10:17:57.351Z,89.04
2022-12-03T10:20:26.086Z,89.03
2022-12-03T10:22:53.569Z,88.93
2022-12-03T10:25:23.634Z,88.17
2022-12-03T10:28:06.405Z,87.34
2022-12-03T10:30:33.395Z,88.24
2022-12-03T10:33:17.374Z,88.02
2022-12-03T10:35:45.846Z,88.25
2022-12-03T10:38:24.186Z,88.26
2022-12-03T10:40:51.264Z,87.31
2022-12-03T10:43:18.162Z,87.08
2022-12-03T10:45:48.192Z,87.76
2022-12-03T10:48:21.004Z,86.86
2022-12-03T10:50:55.947Z,87.26
2022-12-03T10:53:30.299Z,87.32
2022-12-03T10:56:03.557Z,86.52
2022-12-03T10:58:41.613Z,86.47
2022-12-03T11:01:21.870Z,86.59
2022-12-03T11:03:53.889Z,86.98
2022-12-03T11:06:23.424Z,86.78
2022-12-03T11:08:57.894Z,85.95
2022-12-03T11:11:32.173Z,86.71
2022-12-03T11:14:02.490Z,86.13
2022-12-03T11:16:43.405Z,87.33
2022-12-03T11:19:13.425Z,87.72
2022-12-03T11:22:11.577Z,87.53
2022-12-03T11:25:22.263Z,86.10
2022-12-03T11:28:15.507Z,87.50
2022-12-03T11:30:53.321Z,87.01
2022-12-03T11:33:33.757Z,87.27
2022-12-03T11:36:05.919Z,87.60
2022-12-03T11:38:54.113Z,87.44
2022-12-03T11:41:23.487Z,87.70
2022-12-03T11:44:00.040Z,87.79
2022-12-03T11:46:40.863Z,87.75
2022-12-03T11:49:37.521Z,87.84
2022-12-03T11:52:20.767Z,88.19
2022-12-03T11:54:53.610Z,88.11
2022-12-03T11:57:39.031Z,85.21
2022-12-03T12:00:17.604Z,85.77
2022-12-03T12:02:44.859Z,85.48
2022-12-03T12:05:28.124Z,84.64
2022-12-03T12:08:03.789Z,82.21
2022-12-03T12:10:49.187Z,83.86
2022-12-03T12:13:51.796Z,82.05
2022-12-03T12:16:38.657Z,82.45
2022-12-03T12:19:35.020Z,82.43
2022-12-03T12:22:27.401Z,82.59
2022-12-03T12:24:57.209Z,81.94
2022-12-03T12:27:34.660Z,81.17
2022-12-03T12:30:08.442Z,81.38
2022-12-03T12:32:41.522Z,81.49
2022-12-03T12:35:29.542Z,82.45
2022-12-03T12:37:59.976Z,82.11
2022-12-03T12:40:30.745Z,82.10
2022-12-03T12:42:59.076Z,82.07
2022-12-03T12:45:29.374Z,82.25
2022-12-03T12:48:14.818Z,82.36
2022-12-03T12:50:44.162Z,82.92
2022-12-03T12:53:10.942Z,82.59
2022-12-03T12:55:41.884Z,82.32
2022-12-03T12:58:15.280Z,82.60
2022-12-03T13:00:42.759Z,82.04
2022-12-03T13:03:12.821Z,82.03
2022-12-03T13:05:45.832Z,81.89
2022-12-03T13:08:21.106Z,83.13
2022-12-03T13:10:48.277Z,82.37
2022-12-03T13:13:16.684Z,83.26
2022-12-03T13:16:00.222Z,82.48
2022-12-03T13:18:35.442Z,83.07
2022-12-03T13:21:26.867Z,83.35
2022-12-03T13:23:58.545Z,82.94
2022-12-03T13:26:38.662Z,83.01
2022-12-03T13:29:12.317Z,83.28
2022-12-03T13:31:43.714Z,82.89
2022-12-03T13:34:20.791Z,81.73
2022-12-03T13:36:53.488Z,82.55
2022-12-03T13:39:33.531Z,82.86
2022-12-03T13:42:33.743Z,83.39
2022-12-03T13:45:05.988Z,83.17
2022-12-03T13:47:32.704Z,83.00
2022-12-03T13:50:05.391Z,82.16
2022-12-03T13:52:35.038Z,83.22
2022-12-03T13:55:03.723Z,82.96
2022-12-03T13:57:30.556Z,82.65
2022-12-03T13:59:57.611Z,82.49
2022-12-03T14:02:26.027Z,83.06
2022-12-03T14:05:00.489Z,83.01
2022-12-03T14:07:28.517Z,83.39
2022-12-03T14:09:55.791Z,82.75
2022-12-03T14:12:27.772Z,84.10
2022-12-03T14:14:55.170Z,83.98
2022-12-03T14:17:22.696Z,83.53
2022-12-03T14:19:50.163Z,84.23
2022-12-03T14:22:21.720Z,83.73
2022-12-03T14:24:50.745Z,83.93
2022-12-03T14:27:18.389Z,83.85
2022-12-03T14:29:45.291Z,84.00
2022-12-03T14:32:12.628Z,84.25
2022-12-03T14:34:39.844Z,83.20
2022-12-03T14:37:08.115Z,83.33
2022-12-03T14:39:35.270Z,83.77
2022-12-03T14:42:14.096Z,84.06
2022-12-03T14:44:43.185Z,83.94
2022-12-03T14:47:12.753Z,84.28
2022-12-03T14:49:40.532Z,84.95
2022-12-03T14:52:11.776Z,85.42
2022-12-03T14:54:44.322Z,85.80
2022-12-03T14:57:13.153Z,85.85
2022-12-03T14:59:45.637Z,85.73
2022-12-03T15:02:13.335Z,85.34
2022-12-03T15:04:42.900Z,85.77
2022-12-03T15:07:15.373Z,85.68
2022-12-03T15:09:42.233Z,85.85
2022-12-03T15:12:09.549Z,85.22
2022-12-03T15:14:36.257Z,86.10
2022-12-03T15:17:03.302Z,85.78
2022-12-03T15:19:30.908Z,86.32
2022-12-03T15:22:05.326Z,87.18
2022-12-03T15:24:32.561Z,86.89
2022-12-03T15:27:01.019Z,86.09
2022-12-03T15:29:28.269Z,85.57
2022-12-03T15:31:55.772Z,86.11
2022-12-03T15:34:25.407Z,86.06
2022-12-03T15:36:53.432Z,85.75
2022-12-03T15:39:20.516Z,86.28
2022-12-03T15:41:48.445Z,85.75
2022-12-03T15:44:15.365Z,85.42
2022-12-03T15:46:43.641Z,85.84
2022-12-03T15:49:11.229Z,85.42
2022-12-03T15:51:38.359Z,84.95
2022-12-03T15:54:08.019Z,85.74
2022-12-03T15:56:37.754Z,85.44
2022-12-03T15:59:05.940Z,85.68
2022-12-03T16:01:33.639Z,86.37
2022-12-03T16:04:05.397Z,84.88
2022-12-03T16:06:32.546Z,85.63
2022-12-03T16:08:59.827Z,85.93
2022-12-03T16:11:29.280Z,85.57
2022-12-03T16:13:57.561Z,85.69
2022-12-03T16:16:25.197Z,85.99
2022-12-03T16:18:55.074Z,86.62
2022-12-03T16:21:26.765Z,86.30
2022-12-03T16:23:55.699Z,86.57
2022-12-03T16:26:26.190Z,86.22
2022-12-03T16:28:53.229Z,86.91
2022-12-03T16:31:20.607Z,85.71
2022-12-03T16:33:48.180Z,84.62
2022-12-03T16:36:15.743Z,85.29
2022-12-03T16:38:43.093Z,85.98
2022-12-03T16:41:10.299Z,85.81
2022-12-03T16:43:40.930Z,85.79
2022-12-03T16:46:15.086Z,85.51
2022-12-03T16:48:42.144Z,85.49
2022-12-03T16:51:09.744Z,85.47
2022-12-03T16:53:39.052Z,85.69
2022-12-03T16:56:06.135Z,85.27
2022-12-03T16:58:33.186Z,85.23
2022-12-03T17:01:03.408Z,85.39
2022-12-03T17:03:33.842Z,85.43
2022-12-03T17:06:01.803Z,85.15
2022-12-03T17:08:28.707Z,85.38
2022-12-03T17:10:55.926Z,85.60
2022-12-03T17:13:25.818Z,85.48
2022-12-03T17:15:52.905Z,85.55
2022-12-03T17:18:19.830Z,85.83
2022-12-03T17:20:47.056Z,85.95
2022-12-03T17:23:14.000Z,85.83
2022-12-03T17:25:41.289Z,86.21
2022-12-03T17:28:08.390Z,86.43
2022-12-03T17:30:37.456Z,87.63
2022-12-03T17:33:04.638Z,87.67
2022-12-03T17:35:31.689Z,88.08
2022-12-03T17:37:58.767Z,88.00
2022-12-03T17:40:31.482Z,88.49
2022-12-03T17:42:58.495Z,88.78
2022-12-03T17:45:26.425Z,88.98
2022-12-03T17:48:01.841Z,89.06
2022-12-03T17:50:28.726Z,89.60
2022-12-03T17:52:55.479Z,88.94
2022-12-03T17:55:31.294Z,90.06
2022-12-03T17:58:04.342Z,89.72
2022-12-03T18:00:33.017Z,90.31
2022-12-03T18:03:03.058Z,90.44
2022-12-03T18:05:30.362Z,90.18
2022-12-03T18:07:57.696Z,90.36
2022-12-03T18:10:24.984Z,89.77
2022-12-03T18:12:56.958Z,89.37
2022-12-03T18:15:28.092Z,90.45
2022-12-03T18:17:58.091Z,90.27
2022-12-03T18:20:25.431Z,90.15
2022-12-03T18:22:52.756Z,90.47
2022-12-03T18:25:19.921Z,90.21
2022-12-03T18:27:46.867Z,90.50
2022-12-03T18:30:14.303Z,90.48
2022-12-03T18:32:42.842Z,90.39
2022-12-03T18:35:10.156Z,90.66
2022-12-03T18:37:37.523Z,91.12
2022-12-03T18:40:12.461Z,91.29
2022-12-03T18:42:40.261Z,91.32
2022-12-03T18:45:13.076Z,90.69
2022-12-03T18:47:41.353Z,90.70
2022-12-03T18:50:09.869Z,91.05
2022-12-03T18:52:43.094Z,90.80
2022-12-03T18:55:19.549Z,91.00
2022-12-03T18:57:47.227Z,90.32
2022-12-03T19:00:14.772Z,90.58
2022-12-03T19:05:32.378Z,90.71
2022-12-03T19:08:06.748Z,90.44
2022-12-03T19:10:33.740Z,90.42
2022-12-03T19:13:04.220Z,90.30
2022-12-03T19:15:34.486Z,91.07
2022-12-03T19:18:04.583Z,91.59
2022-12-03T19:20:31.814Z,90.67
2022-12-03T19:23:01.816Z,90.58
2022-12-03T19:25:31.140Z,90.57
2022-12-03T19:28:00.216Z,91.12
2022-12-03T19:30:31.780Z,90.58
2022-12-03T19:32:58.549Z,90.55
2022-12-03T19:35:25.199Z,91.07
2022-12-03T19:37:51.889Z,90.54
2022-12-03T19:40:18.492Z,90.29
2022-12-03T19:42:45.173Z,90.83
2022-12-03T19:45:12.428Z,90.99
2022-12-03T19:47:38.965Z,90.51
2022-12-03T19:50:06.357Z,91.06
2022-12-03T19:52:36.275Z,90.40
2022-12-03T19:55:03.175Z,91.05
2022-12-03T19:57:29.894Z,90.45
2022-12-03T19:59:56.751Z,90.64
2022-12-03T20:02:23.838Z,91.33
2022-12-03T20:04:50.559Z,91.36
2022-12-03T20:07:20.538Z,91.43
2022-12-03T20:09:50.417Z,91.67
2022-12-03T20:12:17.751Z,91.67
2022-12-03T20:14:45.212Z,91.47
2022-12-03T20:17:11.815Z,91.24
2022-12-03T20:19:38.327Z,90.84
2022-12-03T20:22:04.916Z,91.06
2022-12-03T20:24:31.551Z,91.75
2022-12-03T20:26:58.360Z,91.53
2022-12-03T20:29:24.966Z,91.86
2022-12-03T20:31:51.701Z,90.79
2022-12-03T20:34:18.406Z,90.30
2022-12-03T20:36:45.598Z,91.45
2022-12-03T20:39:12.534Z,90.57
2022-12-03T20:41:39.167Z,91.18
2022-12-03T20:44:07.567Z,91.51
2022-12-03T20:46:34.813Z,91.90
2022-12-03T20:49:01.625Z,91.95
2022-12-03T20:51:30.142Z,91.59
2022-12-03T20:53:58.989Z,91.08
2022-12-03T20:56:28.698Z,91.48
2022-12-03T20:58:55.269Z,91.92
2022-12-03T21:01:27.557Z,91.74
2022-12-03T21:03:55.943Z,91.72
2022-12-03T21:06:25.106Z,91.51
2022-12-03T21:08:56.639Z,91.42
2022-12-03T21:11:26.069Z,91.51
2022-12-03T21:13:53.902Z,91.38
2022-12-03T21:16:39.768Z,90.63
2022-12-03T21:19:10.642Z,91.27
2022-12-03T21:21:37.484Z,91.19
2022-12-03T21:24:04.418Z,90.98
2022-12-03T21:26:32.643Z,91.44
2022-12-03T21:29:01.307Z,90.45
2022-12-03T21:31:30.072Z,91.27
2022-12-03T21:33:57.098Z,90.87
2022-12-03T21:36:25.426Z,91.24
2022-12-03T21:38:52.480Z,90.85
2022-12-03T21:41:19.156Z,90.58
2022-12-03T21:43:46.228Z,91.36
2022-12-03T21:47:08.327Z,91.02
2022-12-03T21:49:03.766Z,91.61
2022-12-03T21:51:30.335Z,91.74
2022-12-03T21:53:57.240Z,92.04
2022-12-03T21:56:23.877Z,92.09
2022-12-03T21:58:50.502Z,92.28
2022-12-03T22:01:20.592Z,92.04
2022-12-03T22:03:47.942Z,92.21
2022-12-03T22:06:15.740Z,91.39
2022-12-03T22:08:42.858Z,92.25
2022-12-03T22:11:23.592Z,92.58
2022-12-03T22:13:51.249Z,92.48
2022-12-03T22:16:20.651Z,92.25
2022-12-03T22:18:47.859Z,91.65
2022-12-03T22:21:17.882Z,92.39
2022-12-03T22:23:45.065Z,92.52
2022-12-03T22:26:15.651Z,92.07
2022-12-03T22:28:44.002Z,92.41
2022-12-03T22:31:11.052Z,92.71
2022-12-03T22:33:37.988Z,92.49
2022-12-03T22:36:18.010Z,91.32
2022-12-03T22:38:49.381Z,91.51
2022-12-03T22:41:16.076Z,91.68
2022-12-03T22:43:43.120Z,91.78
2022-12-03T22:46:12.921Z,92.53
2022-12-03T22:48:41.452Z,92.27
2022-12-03T22:51:17.591Z,92.16
2022-12-03T22:53:44.862Z,92.96
2022-12-03T22:56:11.775Z,92.67
2022-12-03T22:58:40.139Z,93.12
2022-12-03T23:01:07.536Z,93.30
2022-12-03T23:03:34.387Z,92.17
2022-12-03T23:06:01.372Z,92.10
2022-12-03T23:08:27.981Z,93.00
2022-12-03T23:10:54.734Z,92.59
2022-12-03T23:13:21.256Z,92.84
2022-12-03T23:15:50.668Z,92.87
2022-12-03T23:18:18.582Z,92.40
2022-12-03T23:20:51.153Z,92.74
2022-12-03T23:23:19.565Z,92.42
2022-12-03T23:26:06.650Z,92.95
2022-12-03T23:28:35.073Z,93.14
2022-12-03T23:31:02.007Z,92.89
2022-12-03T23:33:28.724Z,93.11
2022-12-03T23:35:55.535Z,93.08
2022-12-03T23:38:22.280Z,93.33
2022-12-03T23:40:50.058Z,93.73
2022-12-03T23:43:16.659Z,93.49
2022-12-03T23:45:43.174Z,93.85
2022-12-03T23:48:10.311Z,93.38
2022-12-03T23:50:41.224Z,93.44
2022-12-03T23:53:08.435Z,93.79
2022-12-03T23:55:38.908Z,93.51
2022-12-03T23:58:05.681Z,93.34
